createdAt,value
2018-11-02T00:01:31.868Z,95825.00
2018-11-02T00:07:01.252Z,95841.00
2018-11-02T00:12:30.536Z,95853.00
2018-11-02T00:17:59.732Z,95857.00
2018-11-02T00:23:29.089Z,95868.00
2018-11-02T00:28:58.328Z,95854.00
2018-11-02T00:34:27.824Z,95852.00
2018-11-02T00:39:57.064Z,95854.00
2018-11-02T00:45:26.517Z,95849.00
2018-11-02T00:50:55.788Z,95846.00
2018-11-02T00:56:25.103Z,95851.00
2018-11-02T01:01:54.314Z,95844.00
2018-11-02T01:07:23.600Z,95834.00
2018-11-02T01:12:52.880Z,95847.00
2018-11-02T01:18:22.112Z,95846.00
2018-11-02T01:23:51.341Z,95838.00
2018-11-02T01:29:20.527Z,95843.00
2018-11-02T01:34:49.760Z,95839.00
2018-11-02T01:40:18.988Z,95841.00
2018-11-02T01:45:48.549Z,95839.00
2018-11-02T01:51:18.502Z,95828.00
2018-11-02T01:56:47.728Z,95834.00
2018-11-02T02:02:16.990Z,95815.00
2018-11-02T02:07:46.298Z,95829.00
2018-11-02T02:13:15.524Z,95821.00
2018-11-02T02:18:44.780Z,95824.00
2018-11-02T02:24:14.014Z,95824.00
2018-11-02T02:29:43.485Z,95819.00
2018-11-02T02:35:12.726Z,95823.00
2018-11-02T02:40:42.027Z,95822.00
2018-11-02T02:46:11.966Z,95830.00
2018-11-02T02:51:41.281Z,95827.00
2018-11-02T02:57:10.497Z,95840.00
2018-11-02T03:02:39.803Z,95845.00
2018-11-02T03:08:09.099Z,95842.00
2018-11-02T03:13:38.336Z,95849.00
2018-11-02T03:19:07.662Z,95845.00
2018-11-02T03:24:37.028Z,95852.00
2018-11-02T03:30:07.655Z,95860.00
2018-11-02T03:35:36.887Z,95860.00
2018-11-02T03:41:06.372Z,95850.00
2018-11-02T03:46:35.611Z,95860.00
2018-11-02T03:52:05.140Z,95863.00
2018-11-02T03:57:34.393Z,95880.00
2018-11-02T04:03:03.641Z,95871.00
2018-11-02T04:08:32.909Z,95860.00
2018-11-02T04:14:04.345Z,95855.00
2018-11-02T04:19:33.532Z,95870.00
2018-11-02T04:25:02.865Z,95869.00
2018-11-02T04:30:32.100Z,95871.00
2018-11-02T04:36:02.430Z,95880.00
2018-11-02T04:41:31.624Z,95894.00
2018-11-02T04:47:00.843Z,95907.00
2018-11-02T04:52:30.115Z,95904.00
2018-11-02T04:57:59.354Z,95914.00
2018-11-02T05:03:28.625Z,95920.00
2018-11-02T05:08:57.846Z,95925.00
2018-11-02T05:14:27.195Z,95932.00
2018-11-02T05:19:56.469Z,95929.00
2018-11-02T05:25:25.801Z,95946.00
2018-11-02T05:30:55.100Z,95947.00
2018-11-02T05:36:24.432Z,95947.00
2018-11-02T05:41:53.801Z,95955.00
2018-11-02T05:47:23.306Z,95952.00
2018-11-02T05:52:53.140Z,95958.00
2018-11-02T05:58:22.745Z,95972.00
2018-11-02T06:03:52.314Z,95962.00
2018-11-02T06:09:23.041Z,95959.00
2018-11-02T06:14:52.482Z,95983.00
2018-11-02T06:20:23.775Z,95982.00
2018-11-02T06:25:53.224Z,95977.00
2018-11-02T06:31:22.496Z,95996.00
2018-11-02T06:36:51.771Z,95995.00
2018-11-02T06:42:21.020Z,96003.00
2018-11-02T06:47:50.388Z,96007.00
2018-11-02T06:53:19.736Z,96031.00
2018-11-02T06:58:49.291Z,96042.00
2018-11-02T07:04:18.556Z,96039.00
2018-11-02T07:09:47.912Z,96039.00
2018-11-02T07:15:17.338Z,96042.00
2018-11-02T07:20:47.944Z,96043.00
2018-11-02T07:26:17.872Z,96060.00
2018-11-02T07:31:48.045Z,96060.00
2018-11-02T07:37:17.837Z,96041.00
2018-11-02T07:42:47.184Z,96051.00
2018-11-02T07:48:16.600Z,96042.00
2018-11-02T07:53:46.080Z,96067.00
2018-11-02T07:59:15.361Z,96064.00
2018-11-02T08:04:44.751Z,96069.00
2018-11-02T08:10:14.055Z,96068.00
2018-11-02T08:15:43.299Z,96061.00
2018-11-02T08:21:12.796Z,96063.00
2018-11-02T08:26:43.135Z,96065.00
2018-11-02T08:32:12.526Z,96086.00
2018-11-02T08:37:43.140Z,96078.00
2018-11-02T08:43:12.485Z,96076.00
2018-11-02T08:48:41.760Z,96084.00
2018-11-02T08:54:11.171Z,96088.00
2018-11-02T08:59:40.942Z,96093.00
2018-11-02T09:05:11.302Z,96093.00
2018-11-02T09:10:40.637Z,96093.00
2018-11-02T09:16:10.967Z,96096.00
2018-11-02T09:21:40.865Z,96087.00
2018-11-02T09:27:10.161Z,96089.00
2018-11-02T09:32:39.500Z,96096.00
2018-11-02T09:38:08.917Z,96110.00
2018-11-02T09:43:39.136Z,96110.00
2018-11-02T09:49:08.616Z,96083.00
2018-11-02T09:54:37.896Z,96080.00
2018-11-02T10:00:09.063Z,96087.00
2018-11-02T10:05:38.644Z,96087.00
2018-11-02T10:11:08.077Z,96073.00
2018-11-02T10:16:37.512Z,96094.00
2018-11-02T10:22:06.855Z,96054.00
2018-11-02T10:27:36.964Z,96056.00
2018-11-02T10:33:06.206Z,96049.00
2018-11-02T10:38:35.795Z,96041.00
2018-11-02T10:44:05.405Z,96067.00
2018-11-02T10:49:34.857Z,96070.00
2018-11-02T10:55:04.124Z,96059.00
2018-11-02T11:00:38.601Z,96066.00
2018-11-02T11:06:07.804Z,96068.00
2018-11-02T11:11:37.228Z,96084.00
2018-11-02T11:17:06.613Z,96081.00
2018-11-02T11:22:35.920Z,96073.00
2018-11-02T11:28:05.732Z,96071.00
2018-11-02T11:33:35.325Z,96062.00
2018-11-02T11:39:10.226Z,96065.00
2018-11-02T11:44:39.537Z,96067.00
2018-11-02T11:50:20.520Z,96083.00
2018-11-02T11:55:49.846Z,96079.00
2018-11-02T12:01:19.247Z,96086.00
2018-11-02T12:06:48.556Z,96087.00
2018-11-02T12:12:17.968Z,96076.00
2018-11-02T12:17:47.604Z,96077.00
2018-11-02T12:23:16.949Z,96089.00
2018-11-02T12:28:46.277Z,96095.00
2018-11-02T12:34:15.523Z,96074.00
2018-11-02T12:39:44.917Z,96054.00
2018-11-02T12:45:15.469Z,96051.00
2018-11-02T12:50:44.893Z,96043.00
2018-11-02T12:56:14.300Z,96067.00
2018-11-02T13:01:43.616Z,96055.00
2018-11-02T13:07:12.977Z,96043.00
2018-11-02T13:12:42.529Z,96031.00
2018-11-02T13:18:11.974Z,96039.00
2018-11-02T13:23:41.271Z,96049.00
2018-11-02T13:29:10.665Z,96067.00
2018-11-02T13:34:40.188Z,96068.00
2018-11-02T13:40:11.203Z,96072.00
2018-11-02T13:45:40.507Z,96069.00
2018-11-02T13:51:09.790Z,96078.00
2018-11-02T13:56:39.216Z,96081.00
2018-11-02T14:02:09.546Z,96076.00
2018-11-02T14:07:38.897Z,96078.00
2018-11-02T14:13:08.286Z,96078.00
2018-11-02T14:18:37.898Z,96068.00
2018-11-02T14:24:07.255Z,96073.00
2018-11-02T14:29:37.803Z,96089.00
2018-11-02T14:35:07.569Z,96090.00
2018-11-02T14:40:37.126Z,96090.00
2018-11-02T14:46:06.551Z,96095.00
2018-11-02T14:51:35.991Z,96113.00
2018-11-02T14:57:05.448Z,96139.00
2018-11-02T15:02:34.792Z,96128.00
2018-11-02T15:08:04.155Z,96128.00
2018-11-02T15:13:33.609Z,96137.00
2018-11-02T15:19:02.986Z,96157.00
2018-11-02T15:24:32.368Z,96150.00
2018-11-02T15:30:01.690Z,96165.00
2018-11-02T15:35:30.952Z,96182.00
2018-11-02T15:41:00.304Z,96182.00
2018-11-02T15:46:29.711Z,96189.00
2018-11-02T15:51:59.312Z,96204.00
2018-11-02T15:57:28.676Z,96208.00
2018-11-02T16:02:58.164Z,96196.00
2018-11-02T16:08:27.785Z,96213.00
2018-11-02T16:13:57.372Z,96214.00
2018-11-02T16:19:26.785Z,96229.00
2018-11-02T16:24:56.136Z,96227.00
2018-11-02T16:30:25.465Z,96237.00
2018-11-02T16:35:54.886Z,96248.00
2018-11-02T16:41:24.624Z,96254.00
2018-11-02T16:46:53.832Z,96260.00
2018-11-02T16:52:23.067Z,96256.00
2018-11-02T16:57:52.558Z,96262.00
2018-11-02T17:03:21.791Z,96273.00
2018-11-02T17:08:51.134Z,96284.00
2018-11-02T17:14:20.456Z,96282.00
2018-11-02T17:19:49.779Z,96291.00
2018-11-02T17:25:19.032Z,96293.00
2018-11-02T17:30:48.353Z,96304.00
2018-11-02T17:36:17.712Z,96293.00
2018-11-02T17:41:47.064Z,96305.00
2018-11-02T17:47:16.532Z,96310.00
2018-11-02T17:52:45.819Z,96315.00
2018-11-02T17:58:15.118Z,96333.00
2018-11-02T18:03:44.694Z,96339.00
2018-11-02T18:09:13.956Z,96321.00
2018-11-02T18:14:43.304Z,96327.00
2018-11-02T18:20:14.900Z,96322.00
2018-11-02T18:25:44.580Z,96318.00
2018-11-02T18:31:13.892Z,96326.00
2018-11-02T18:36:43.255Z,96333.00
2018-11-02T18:42:12.516Z,96346.00
2018-11-02T18:47:44.981Z,96328.00
2018-11-02T18:53:14.276Z,96332.00
2018-11-02T18:58:43.743Z,96333.00
2018-11-02T19:04:13.175Z,96330.00
2018-11-02T19:09:42.436Z,96320.00
2018-11-02T19:15:14.274Z,96321.00
2018-11-02T19:20:43.676Z,96321.00
2018-11-02T19:26:13.176Z,96323.00
2018-11-02T19:31:42.487Z,96330.00
2018-11-02T19:37:11.765Z,96333.00
2018-11-02T19:42:41.083Z,96355.00
2018-11-02T19:48:10.670Z,96353.00
2018-11-02T19:53:40.162Z,96353.00
2018-11-02T19:59:09.492Z,96373.00
2018-11-02T20:04:39.095Z,96372.00
2018-11-02T20:10:09.178Z,96383.00
2018-11-02T20:15:38.472Z,96373.00
2018-11-02T20:21:07.859Z,96377.00
2018-11-02T20:26:37.285Z,96387.00
2018-11-02T20:32:06.815Z,96378.00
2018-11-02T20:37:36.917Z,96381.00
2018-11-02T20:43:06.309Z,96385.00
2018-11-02T20:48:35.657Z,96389.00
2018-11-02T20:54:05.303Z,96399.00
2018-11-02T20:59:34.662Z,96408.00
2018-11-02T21:05:04.127Z,96409.00
2018-11-02T21:10:33.448Z,96402.00
2018-11-02T21:16:02.944Z,96413.00
2018-11-02T21:21:32.233Z,96408.00
2018-11-02T21:27:01.517Z,96404.00
2018-11-02T21:32:30.916Z,96413.00
2018-11-02T21:38:00.184Z,96421.00
2018-11-02T21:43:29.568Z,96429.00
2018-11-02T21:48:58.824Z,96432.00
2018-11-02T21:54:28.111Z,96429.00
2018-11-02T21:59:57.788Z,96413.00
2018-11-02T22:05:27.215Z,96406.00
2018-11-02T22:10:56.570Z,96413.00
2018-11-02T22:16:25.832Z,96414.00
2018-11-02T22:21:55.181Z,96409.00
2018-11-02T22:27:24.461Z,96402.00
2018-11-02T22:32:53.756Z,96399.00
2018-11-02T22:38:23.103Z,96408.00
2018-11-02T22:43:52.360Z,96417.00
2018-11-02T22:49:21.840Z,96435.00
2018-11-02T22:54:51.043Z,96434.00
2018-11-02T23:00:20.556Z,96442.00
2018-11-02T23:05:49.987Z,96437.00
2018-11-02T23:11:20.220Z,96455.00
2018-11-02T23:16:50.946Z,96447.00
2018-11-02T23:22:20.599Z,96444.00
2018-11-02T23:27:49.924Z,96446.00
2018-11-02T23:33:19.393Z,96448.00
2018-11-02T23:38:48.672Z,96451.00
2018-11-02T23:44:17.994Z,96446.00
2018-11-02T23:49:47.479Z,96450.00
2018-11-02T23:55:16.786Z,96436.00
